sensor_id;sensor_type;location;lat;lon;timestamp;temperature;humidity
8676;DHT22;4375;52.486;13.424;2023-10-13T00:01:54;14.00;99.90
8676;DHT22;4375;52.486;13.424;2023-10-13T00:04:21;14.00;99.90
8676;DHT22;4375;52.486;13.424;2023-10-13T00:06:54;13.90;99.90
8676;DHT22;4375;52.486;13.424;2023-10-13T00:09:22;13.90;99.90
8676;DHT22;4375;52.486;13.424;2023-10-13T00:11:54;14.00;99.90
8676;DHT22;4375;52.486;13.424;2023-10-13T00:14:21;14.00;99.90
8676;DHT22;4375;52.486;13.424;2023-10-13T00:16:48;14.10;99.90
8676;DHT22;4375;52.486;13.424;2023-10-13T00:19:37;14.00;99.90
8676;DHT22;4375;52.486;13.424;2023-10-13T00:22:07;14.10;99.90
8676;DHT22;4375;52.486;13.424;2023-10-13T00:24:38;14.10;99.90
8676;DHT22;4375;52.486;13.424;2023-10-13T00:27:27;14.10;99.90
8676;DHT22;4375;52.486;13.424;2023-10-13T00:29:53;14.20;99.90
8676;DHT22;4375;52.486;13.424;2023-10-13T00:32:38;14.20;99.90
8676;DHT22;4375;52.486;13.424;2023-10-13T00:35:06;14.10;99.90
8676;DHT22;4375;52.486;13.424;2023-10-13T00:37:32;14.10;99.90
8676;DHT22;4375;52.486;13.424;2023-10-13T00:40:07;14.10;99.90
8676;DHT22;4375;52.486;13.424;2023-10-13T00:42:42;14.20;99.90
8676;DHT22;4375;52.486;13.424;2023-10-13T00:45:17;14.10;99.90
8676;DHT22;4375;52.486;13.424;2023-10-13T00:47:44;14.10;99.90
8676;DHT22;4375;52.486;13.424;2023-10-13T00:50:22;14.10;99.90
8676;DHT22;4375;52.486;13.424;2023-10-13T00:52:49;14.10;99.90
8676;DHT22;4375;52.486;13.424;2023-10-13T00:55:19;14.10;99.90
8676;DHT22;4375;52.486;13.424;2023-10-13T00:57:54;14.10;99.90
8676;DHT22;4375;52.486;13.424;2023-10-13T01:00:23;14.20;99.90
8676;DHT22;4375;52.486;13.424;2023-10-13T01:02:54;14.20;99.90
8676;DHT22;4375;52.486;13.424;2023-10-13T01:05:30;14.20;99.90
8676;DHT22;4375;52.486;13.424;2023-10-13T01:08:00;14.10;99.90
8676;DHT22;4375;52.486;13.424;2023-10-13T01:10:27;14.10;99.90
8676;DHT22;4375;52.486;13.424;2023-10-13T01:12:56;14.10;99.90
8676;DHT22;4375;52.486;13.424;2023-10-13T01:15:21;14.20;99.90
8676;DHT22;4375;52.486;13.424;2023-10-13T01:17:48;14.10;99.90
8676;DHT22;4375;52.486;13.424;2023-10-13T01:20:14;14.00;99.90
8676;DHT22;4375;52.486;13.424;2023-10-13T01:22:50;14.10;99.90
8676;DHT22;4375;52.486;13.424;2023-10-13T01:25:25;14.10;99.90
8676;DHT22;4375;52.486;13.424;2023-10-13T01:27:54;14.00;99.90
8676;DHT22;4375;52.486;13.424;2023-10-13T01:30:21;13.90;99.90
8676;DHT22;4375;52.486;13.424;2023-10-13T01:32:53;14.00;99.90
8676;DHT22;4375;52.486;13.424;2023-10-13T01:35:20;14.00;99.90
8676;DHT22;4375;52.486;13.424;2023-10-13T01:37:52;14.00;99.90
8676;DHT22;4375;52.486;13.424;2023-10-13T01:40:18;13.90;99.90
8676;DHT22;4375;52.486;13.424;2023-10-13T01:42:46;14.00;99.90
8676;DHT22;4375;52.486;13.424;2023-10-13T01:45:12;13.90;99.90
8676;DHT22;4375;52.486;13.424;2023-10-13T01:47:39;13.90;99.90
8676;DHT22;4375;52.486;13.424;2023-10-13T01:50:06;13.90;99.90
8676;DHT22;4375;52.486;13.424;2023-10-13T01:52:40;13.90;99.90
8676;DHT22;4375;52.486;13.424;2023-10-13T01:55:07;13.90;99.90
8676;DHT22;4375;52.486;13.424;2023-10-13T01:57:35;13.80;99.90
8676;DHT22;4375;52.486;13.424;2023-10-13T02:00:01;13.70;99.90
8676;DHT22;4375;52.486;13.424;2023-10-13T02:02:36;13.80;99.90
8676;DHT22;4375;52.486;13.424;2023-10-13T02:05:03;13.80;99.90
8676;DHT22;4375;52.486;13.424;2023-10-13T02:07:29;13.80;99.90
8676;DHT22;4375;52.486;13.424;2023-10-13T02:09:58;13.80;99.90
8676;DHT22;4375;52.486;13.424;2023-10-13T02:12:24;13.80;99.90
8676;DHT22;4375;52.486;13.424;2023-10-13T02:15:03;13.90;99.90
8676;DHT22;4375;52.486;13.424;2023-10-13T02:17:30;13.80;99.90
8676;DHT22;4375;52.486;13.424;2023-10-13T02:20:09;13.80;99.90
8676;DHT22;4375;52.486;13.424;2023-10-13T02:22:41;13.80;99.90
8676;DHT22;4375;52.486;13.424;2023-10-13T02:25:18;13.80;99.90
8676;DHT22;4375;52.486;13.424;2023-10-13T02:28:01;13.90;99.90
8676;DHT22;4375;52.486;13.424;2023-10-13T02:30:27;13.90;99.90
8676;DHT22;4375;52.486;13.424;2023-10-13T02:32:53;13.80;99.90
8676;DHT22;4375;52.486;13.424;2023-10-13T02:35:21;13.70;99.90
8676;DHT22;4375;52.486;13.424;2023-10-13T02:37:55;13.70;99.90
8676;DHT22;4375;52.486;13.424;2023-10-13T02:40:23;13.70;99.90
8676;DHT22;4375;52.486;13.424;2023-10-13T02:42:49;13.70;99.90
8676;DHT22;4375;52.486;13.424;2023-10-13T02:45:15;13.80;99.90
8676;DHT22;4375;52.486;13.424;2023-10-13T02:47:40;13.80;99.90
8676;DHT22;4375;52.486;13.424;2023-10-13T02:50:09;13.80;99.90
8676;DHT22;4375;52.486;13.424;2023-10-13T02:52:38;13.80;99.90
8676;DHT22;4375;52.486;13.424;2023-10-13T02:55:07;13.80;99.90
8676;DHT22;4375;52.486;13.424;2023-10-13T02:57:36;13.80;99.90
8676;DHT22;4375;52.486;13.424;2023-10-13T03:00:01;13.90;99.90
8676;DHT22;4375;52.486;13.424;2023-10-13T03:02:41;13.80;99.90
8676;DHT22;4375;52.486;13.424;2023-10-13T03:05:12;13.80;99.90
8676;DHT22;4375;52.486;13.424;2023-10-13T03:07:39;13.70;99.90
8676;DHT22;4375;52.486;13.424;2023-10-13T03:10:09;13.80;99.90
8676;DHT22;4375;52.486;13.424;2023-10-13T03:12:39;13.80;99.90
8676;DHT22;4375;52.486;13.424;2023-10-13T03:15:05;13.80;99.90
8676;DHT22;4375;52.486;13.424;2023-10-13T03:17:37;13.80;99.90
8676;DHT22;4375;52.486;13.424;2023-10-13T03:20:09;13.90;99.90
8676;DHT22;4375;52.486;13.424;2023-10-13T03:22:38;13.90;99.90
8676;DHT22;4375;52.486;13.424;2023-10-13T03:25:03;13.90;99.90
8676;DHT22;4375;52.486;13.424;2023-10-13T03:27:30;13.90;99.90
8676;DHT22;4375;52.486;13.424;2023-10-13T03:30:14;14.00;99.90
8676;DHT22;4375;52.486;13.424;2023-10-13T03:32:40;14.00;99.90
8676;DHT22;4375;52.486;13.424;2023-10-13T03:35:12;14.00;99.90
8676;DHT22;4375;52.486;13.424;2023-10-13T03:37:39;14.00;99.90
8676;DHT22;4375;52.486;13.424;2023-10-13T03:40:07;14.00;99.90
8676;DHT22;4375;52.486;13.424;2023-10-13T03:42:46;14.00;99.90
8676;DHT22;4375;52.486;13.424;2023-10-13T03:45:34;14.00;99.90
8676;DHT22;4375;52.486;13.424;2023-10-13T03:48:14;14.00;99.90
8676;DHT22;4375;52.486;13.424;2023-10-13T03:51:02;14.10;99.90
8676;DHT22;4375;52.486;13.424;2023-10-13T03:53:41;14.10;99.90
8676;DHT22;4375;52.486;13.424;2023-10-13T03:56:23;14.10;99.90
8676;DHT22;4375;52.486;13.424;2023-10-13T03:58:56;14.10;99.90
8676;DHT22;4375;52.486;13.424;2023-10-13T04:01:36;14.20;99.90
8676;DHT22;4375;52.486;13.424;2023-10-13T04:04:20;14.20;99.90
8676;DHT22;4375;52.486;13.424;2023-10-13T04:07:13;14.10;99.90
8676;DHT22;4375;52.486;13.424;2023-10-13T04:09:52;14.20;99.90
8676;DHT22;4375;52.486;13.424;2023-10-13T04:12:37;14.10;99.90
8676;DHT22;4375;52.486;13.424;2023-10-13T04:15:32;14.00;99.90
8676;DHT22;4375;52.486;13.424;2023-10-13T04:18:05;14.10;99.90
8676;DHT22;4375;52.486;13.424;2023-10-13T04:20:40;14.00;99.90
8676;DHT22;4375;52.486;13.424;2023-10-13T04:23:11;14.20;99.90
8676;DHT22;4375;52.486;13.424;2023-10-13T04:25:43;14.20;99.90
8676;DHT22;4375;52.486;13.424;2023-10-13T04:28:14;14.20;99.90
8676;DHT22;4375;52.486;13.424;2023-10-13T04:30:47;14.20;99.90
8676;DHT22;4375;52.486;13.424;2023-10-13T04:33:27;14.20;99.90
8676;DHT22;4375;52.486;13.424;2023-10-13T04:36:05;14.20;99.90
8676;DHT22;4375;52.486;13.424;2023-10-13T04:38:51;14.20;99.90
8676;DHT22;4375;52.486;13.424;2023-10-13T04:41:29;14.30;99.90
8676;DHT22;4375;52.486;13.424;2023-10-13T04:44:08;14.30;99.90
8676;DHT22;4375;52.486;13.424;2023-10-13T04:46:53;14.30;99.90
8676;DHT22;4375;52.486;13.424;2023-10-13T04:49:29;14.20;99.90
8676;DHT22;4375;52.486;13.424;2023-10-13T04:52:05;14.30;99.90
8676;DHT22;4375;52.486;13.424;2023-10-13T04:54:41;14.30;99.90
8676;DHT22;4375;52.486;13.424;2023-10-13T04:57:14;14.30;99.90
8676;DHT22;4375;52.486;13.424;2023-10-13T04:59:52;14.30;99.90
8676;DHT22;4375;52.486;13.424;2023-10-13T05:02:44;14.30;99.90
8676;DHT22;4375;52.486;13.424;2023-10-13T05:05:25;14.30;99.90
8676;DHT22;4375;52.486;13.424;2023-10-13T05:07:51;14.30;99.90
8676;DHT22;4375;52.486;13.424;2023-10-13T05:10:37;14.40;99.90
8676;DHT22;4375;52.486;13.424;2023-10-13T05:13:21;14.40;99.90
8676;DHT22;4375;52.486;13.424;2023-10-13T05:16:05;14.40;99.90
8676;DHT22;4375;52.486;13.424;2023-10-13T05:18:49;14.50;99.90
8676;DHT22;4375;52.486;13.424;2023-10-13T05:21:33;14.50;99.90
8676;DHT22;4375;52.486;13.424;2023-10-13T05:24:18;14.50;99.90
8676;DHT22;4375;52.486;13.424;2023-10-13T05:27:02;14.60;99.90
8676;DHT22;4375;52.486;13.424;2023-10-13T05:29:47;14.50;99.90
8676;DHT22;4375;52.486;13.424;2023-10-13T05:32:31;14.60;99.90
8676;DHT22;4375;52.486;13.424;2023-10-13T05:35:17;14.50;99.90
8676;DHT22;4375;52.486;13.424;2023-10-13T05:38:01;14.60;99.90
8676;DHT22;4375;52.486;13.424;2023-10-13T05:41:03;14.60;99.90
8676;DHT22;4375;52.486;13.424;2023-10-13T05:43:48;14.70;99.90
8676;DHT22;4375;52.486;13.424;2023-10-13T05:46:32;14.60;99.90
8676;DHT22;4375;52.486;13.424;2023-10-13T05:49:08;14.70;99.90
8676;DHT22;4375;52.486;13.424;2023-10-13T05:51:37;14.70;99.90
8676;DHT22;4375;52.486;13.424;2023-10-13T05:54:18;14.70;99.90
8676;DHT22;4375;52.486;13.424;2023-10-13T05:56:50;14.70;99.90
8676;DHT22;4375;52.486;13.424;2023-10-13T05:59:37;14.70;99.90
8676;DHT22;4375;52.486;13.424;2023-10-13T06:02:23;14.80;99.90
8676;DHT22;4375;52.486;13.424;2023-10-13T06:05:09;14.80;99.90
8676;DHT22;4375;52.486;13.424;2023-10-13T06:07:54;14.80;99.90
8676;DHT22;4375;52.486;13.424;2023-10-13T06:10:38;14.80;99.90
8676;DHT22;4375;52.486;13.424;2023-10-13T06:13:23;14.90;99.90
8676;DHT22;4375;52.486;13.424;2023-10-13T06:16:11;15.00;99.90
8676;DHT22;4375;52.486;13.424;2023-10-13T06:18:56;15.00;99.90
8676;DHT22;4375;52.486;13.424;2023-10-13T06:21:41;15.10;99.90
8676;DHT22;4375;52.486;13.424;2023-10-13T06:24:26;15.10;99.90
8676;DHT22;4375;52.486;13.424;2023-10-13T06:27:10;15.10;99.90
8676;DHT22;4375;52.486;13.424;2023-10-13T06:29:55;15.20;99.90
8676;DHT22;4375;52.486;13.424;2023-10-13T06:32:21;15.30;99.90
8676;DHT22;4375;52.486;13.424;2023-10-13T06:34:54;15.20;99.90
8676;DHT22;4375;52.486;13.424;2023-10-13T06:37:25;15.20;99.90
8676;DHT22;4375;52.486;13.424;2023-10-13T06:40:01;15.20;99.90
8676;DHT22;4375;52.486;13.424;2023-10-13T06:42:50;15.20;99.90
8676;DHT22;4375;52.486;13.424;2023-10-13T06:45:16;15.30;99.90
8676;DHT22;4375;52.486;13.424;2023-10-13T06:47:46;15.30;99.90
8676;DHT22;4375;52.486;13.424;2023-10-13T06:50:12;15.20;99.90
8676;DHT22;4375;52.486;13.424;2023-10-13T06:52:44;15.30;99.90
8676;DHT22;4375;52.486;13.424;2023-10-13T06:55:10;15.30;99.90
8676;DHT22;4375;52.486;13.424;2023-10-13T06:57:43;15.20;99.90
8676;DHT22;4375;52.486;13.424;2023-10-13T07:00:10;15.30;99.90
8676;DHT22;4375;52.486;13.424;2023-10-13T07:02:48;15.30;99.90
8676;DHT22;4375;52.486;13.424;2023-10-13T07:05:17;15.50;99.90
8676;DHT22;4375;52.486;13.424;2023-10-13T07:07:43;15.60;99.90
8676;DHT22;4375;52.486;13.424;2023-10-13T07:10:10;15.80;99.90
8676;DHT22;4375;52.486;13.424;2023-10-13T07:12:37;15.90;99.90
8676;DHT22;4375;52.486;13.424;2023-10-13T07:15:04;16.00;99.90
8676;DHT22;4375;52.486;13.424;2023-10-13T07:17:53;16.10;99.90
8676;DHT22;4375;52.486;13.424;2023-10-13T07:20:32;16.30;99.90
8676;DHT22;4375;52.486;13.424;2023-10-13T07:22:57;16.30;99.90
8676;DHT22;4375;52.486;13.424;2023-10-13T07:25:32;16.50;99.90
8676;DHT22;4375;52.486;13.424;2023-10-13T07:28:06;16.50;99.90
8676;DHT22;4375;52.486;13.424;2023-10-13T07:30:35;16.50;99.90
8676;DHT22;4375;52.486;13.424;2023-10-13T07:33:36;16.50;99.90
8676;DHT22;4375;52.486;13.424;2023-10-13T07:36:06;16.60;99.90
8676;DHT22;4375;52.486;13.424;2023-10-13T07:38:42;16.60;99.90
8676;DHT22;4375;52.486;13.424;2023-10-13T07:41:09;16.60;99.90
8676;DHT22;4375;52.486;13.424;2023-10-13T07:43:35;16.70;99.90
8676;DHT22;4375;52.486;13.424;2023-10-13T07:46:03;16.70;99.90
8676;DHT22;4375;52.486;13.424;2023-10-13T07:48:36;16.70;99.90
8676;DHT22;4375;52.486;13.424;2023-10-13T07:51:04;16.80;99.90
8676;DHT22;4375;52.486;13.424;2023-10-13T07:53:31;16.80;99.90
8676;DHT22;4375;52.486;13.424;2023-10-13T07:56:08;16.90;99.90
8676;DHT22;4375;52.486;13.424;2023-10-13T07:58:35;17.00;99.90
8676;DHT22;4375;52.486;13.424;2023-10-13T08:01:13;17.00;99.90
8676;DHT22;4375;52.486;13.424;2023-10-13T08:03:43;17.00;99.90
8676;DHT22;4375;52.486;13.424;2023-10-13T08:06:10;17.00;99.90
8676;DHT22;4375;52.486;13.424;2023-10-13T08:08:36;17.00;99.90
8676;DHT22;4375;52.486;13.424;2023-10-13T08:11:12;17.00;99.90
8676;DHT22;4375;52.486;13.424;2023-10-13T08:13:51;17.10;99.90
8676;DHT22;4375;52.486;13.424;2023-10-13T08:16:23;17.00;99.90
8676;DHT22;4375;52.486;13.424;2023-10-13T08:18:55;17.00;99.90
8676;DHT22;4375;52.486;13.424;2023-10-13T08:21:21;17.10;99.90
8676;DHT22;4375;52.486;13.424;2023-10-13T08:23:51;17.10;99.90
8676;DHT22;4375;52.486;13.424;2023-10-13T08:26:20;17.20;99.90
8676;DHT22;4375;52.486;13.424;2023-10-13T08:29:04;17.30;99.90
8676;DHT22;4375;52.486;13.424;2023-10-13T08:31:42;17.40;99.90
8676;DHT22;4375;52.486;13.424;2023-10-13T08:34:07;17.50;99.90
8676;DHT22;4375;52.486;13.424;2023-10-13T08:36:40;17.70;99.90
8676;DHT22;4375;52.486;13.424;2023-10-13T08:39:06;17.90;99.90
8676;DHT22;4375;52.486;13.424;2023-10-13T08:42:01;17.90;99.90
8676;DHT22;4375;52.486;13.424;2023-10-13T08:44:44;18.00;99.90
8676;DHT22;4375;52.486;13.424;2023-10-13T08:47:13;17.90;99.90
8676;DHT22;4375;52.486;13.424;2023-10-13T08:49:44;17.80;99.90
8676;DHT22;4375;52.486;13.424;2023-10-13T08:52:18;17.80;99.90
8676;DHT22;4375;52.486;13.424;2023-10-13T08:55:05;17.80;99.90
8676;DHT22;4375;52.486;13.424;2023-10-13T08:57:49;17.70;99.90
8676;DHT22;4375;52.486;13.424;2023-10-13T09:00:18;17.70;99.90
8676;DHT22;4375;52.486;13.424;2023-10-13T09:03:13;17.70;99.90
8676;DHT22;4375;52.486;13.424;2023-10-13T09:05:55;17.70;99.90
8676;DHT22;4375;52.486;13.424;2023-10-13T09:08:29;17.70;99.90
8676;DHT22;4375;52.486;13.424;2023-10-13T09:11:04;17.80;99.90
8676;DHT22;4375;52.486;13.424;2023-10-13T09:13:39;17.80;99.90
8676;DHT22;4375;52.486;13.424;2023-10-13T09:16:14;17.80;99.90
8676;DHT22;4375;52.486;13.424;2023-10-13T09:19:02;17.90;99.90
8676;DHT22;4375;52.486;13.424;2023-10-13T09:21:41;17.90;99.90
8676;DHT22;4375;52.486;13.424;2023-10-13T09:24:13;17.90;99.90
8676;DHT22;4375;52.486;13.424;2023-10-13T09:26:53;17.90;99.90
8676;DHT22;4375;52.486;13.424;2023-10-13T09:29:21;18.00;99.90
8676;DHT22;4375;52.486;13.424;2023-10-13T09:32:01;17.90;99.90
8676;DHT22;4375;52.486;13.424;2023-10-13T09:34:27;17.90;99.90
8676;DHT22;4375;52.486;13.424;2023-10-13T09:36:59;17.90;99.90
8676;DHT22;4375;52.486;13.424;2023-10-13T09:39:26;17.80;99.90
8676;DHT22;4375;52.486;13.424;2023-10-13T09:41:59;17.90;99.90
8676;DHT22;4375;52.486;13.424;2023-10-13T09:44:26;18.00;99.90
8676;DHT22;4375;52.486;13.424;2023-10-13T09:47:00;18.00;99.90
8676;DHT22;4375;52.486;13.424;2023-10-13T09:49:35;17.80;99.90
8676;DHT22;4375;52.486;13.424;2023-10-13T09:52:23;17.80;99.90
8676;DHT22;4375;52.486;13.424;2023-10-13T09:57:45;17.80;99.90
8676;DHT22;4375;52.486;13.424;2023-10-13T10:00:18;17.80;99.90
8676;DHT22;4375;52.486;13.424;2023-10-13T10:03:06;17.80;99.90
8676;DHT22;4375;52.486;13.424;2023-10-13T10:06:02;17.80;99.90
8676;DHT22;4375;52.486;13.424;2023-10-13T10:08:51;17.70;99.90
8676;DHT22;4375;52.486;13.424;2023-10-13T10:17:13;17.90;99.90
8676;DHT22;4375;52.486;13.424;2023-10-13T10:19:49;17.90;99.90
8676;DHT22;4375;52.486;13.424;2023-10-13T10:22:32;17.90;99.90
8676;DHT22;4375;52.486;13.424;2023-10-13T10:25:05;18.00;99.90
8676;DHT22;4375;52.486;13.424;2023-10-13T10:27:59;18.00;99.90
8676;DHT22;4375;52.486;13.424;2023-10-13T10:30:26;17.90;99.90
8676;DHT22;4375;52.486;13.424;2023-10-13T10:32:56;17.90;99.90
8676;DHT22;4375;52.486;13.424;2023-10-13T10:35:27;18.00;99.90
8676;DHT22;4375;52.486;13.424;2023-10-13T10:38:19;18.00;99.90
8676;DHT22;4375;52.486;13.424;2023-10-13T10:40:55;18.00;99.90
8676;DHT22;4375;52.486;13.424;2023-10-13T10:45:52;18.00;99.90
8676;DHT22;4375;52.486;13.424;2023-10-13T10:48:18;18.00;99.90
8676;DHT22;4375;52.486;13.424;2023-10-13T10:50:56;18.00;99.90
8676;DHT22;4375;52.486;13.424;2023-10-13T10:53:24;18.00;99.90
8676;DHT22;4375;52.486;13.424;2023-10-13T10:56:09;18.00;99.90
8676;DHT22;4375;52.486;13.424;2023-10-13T10:58:55;18.00;99.90
8676;DHT22;4375;52.486;13.424;2023-10-13T11:01:28;18.00;99.90
8676;DHT22;4375;52.486;13.424;2023-10-13T11:04:08;18.00;99.90
8676;DHT22;4375;52.486;13.424;2023-10-13T11:06:35;18.00;99.90
8676;DHT22;4375;52.486;13.424;2023-10-13T11:09:07;18.00;99.90
8676;DHT22;4375;52.486;13.424;2023-10-13T11:11:51;18.10;99.90
8676;DHT22;4375;52.486;13.424;2023-10-13T11:14:27;18.10;99.90
8676;DHT22;4375;52.486;13.424;2023-10-13T11:16:55;18.10;99.90
8676;DHT22;4375;52.486;13.424;2023-10-13T11:19:40;18.20;99.90
8676;DHT22;4375;52.486;13.424;2023-10-13T11:22:17;18.30;99.90
8676;DHT22;4375;52.486;13.424;2023-10-13T11:24:58;18.30;99.90
8676;DHT22;4375;52.486;13.424;2023-10-13T11:27:31;18.30;99.90
8676;DHT22;4375;52.486;13.424;2023-10-13T11:30:12;18.40;99.90
8676;DHT22;4375;52.486;13.424;2023-10-13T11:32:41;18.40;99.90
8676;DHT22;4375;52.486;13.424;2023-10-13T11:35:10;18.40;99.90
8676;DHT22;4375;52.486;13.424;2023-10-13T11:37:51;18.40;99.90
8676;DHT22;4375;52.486;13.424;2023-10-13T11:40:31;18.40;99.90
8676;DHT22;4375;52.486;13.424;2023-10-13T11:43:12;18.40;99.90
8676;DHT22;4375;52.486;13.424;2023-10-13T11:45:48;18.40;99.90
8676;DHT22;4375;52.486;13.424;2023-10-13T11:48:41;18.40;99.90
8676;DHT22;4375;52.486;13.424;2023-10-13T11:51:16;18.40;99.90
8676;DHT22;4375;52.486;13.424;2023-10-13T11:53:51;18.40;99.90
8676;DHT22;4375;52.486;13.424;2023-10-13T11:56:21;18.40;99.90
8676;DHT22;4375;52.486;13.424;2023-10-13T11:58:47;18.40;99.90
8676;DHT22;4375;52.486;13.424;2023-10-13T12:01:14;18.50;99.90
8676;DHT22;4375;52.486;13.424;2023-10-13T12:03:42;18.50;99.90
8676;DHT22;4375;52.486;13.424;2023-10-13T12:06:28;18.60;99.90
8676;DHT22;4375;52.486;13.424;2023-10-13T12:09:09;18.60;99.90
8676;DHT22;4375;52.486;13.424;2023-10-13T12:11:44;18.70;99.90
8676;DHT22;4375;52.486;13.424;2023-10-13T12:14:14;18.80;99.90
8676;DHT22;4375;52.486;13.424;2023-10-13T12:17:06;18.90;99.90
8676;DHT22;4375;52.486;13.424;2023-10-13T12:19:36;19.00;99.90
8676;DHT22;4375;52.486;13.424;2023-10-13T12:22:04;19.00;99.90
8676;DHT22;4375;52.486;13.424;2023-10-13T12:24:34;19.00;99.90
8676;DHT22;4375;52.486;13.424;2023-10-13T12:27:03;19.00;99.90
8676;DHT22;4375;52.486;13.424;2023-10-13T12:29:47;19.10;99.90
8676;DHT22;4375;52.486;13.424;2023-10-13T12:32:13;19.00;99.90
8676;DHT22;4375;52.486;13.424;2023-10-13T12:34:40;19.20;99.90
8676;DHT22;4375;52.486;13.424;2023-10-13T12:37:27;19.30;99.90
8676;DHT22;4375;52.486;13.424;2023-10-13T12:40:11;19.30;99.90
8676;DHT22;4375;52.486;13.424;2023-10-13T12:42:56;19.30;99.90
8676;DHT22;4375;52.486;13.424;2023-10-13T12:45:41;19.40;99.90
8676;DHT22;4375;52.486;13.424;2023-10-13T12:48:25;19.40;99.90
8676;DHT22;4375;52.486;13.424;2023-10-13T12:51:10;19.50;99.90
8676;DHT22;4375;52.486;13.424;2023-10-13T12:53:55;19.50;99.90
8676;DHT22;4375;52.486;13.424;2023-10-13T12:56:21;19.60;99.90
8676;DHT22;4375;52.486;13.424;2023-10-13T12:58:54;19.60;99.90
8676;DHT22;4375;52.486;13.424;2023-10-13T13:01:21;19.60;99.90
8676;DHT22;4375;52.486;13.424;2023-10-13T13:03:47;19.70;99.90
8676;DHT22;4375;52.486;13.424;2023-10-13T13:06:20;19.70;99.90
8676;DHT22;4375;52.486;13.424;2023-10-13T13:08:54;19.80;99.90
8676;DHT22;4375;52.486;13.424;2023-10-13T13:11:20;19.90;99.90
8676;DHT22;4375;52.486;13.424;2023-10-13T13:13:47;19.90;99.90
8676;DHT22;4375;52.486;13.424;2023-10-13T13:16:18;19.90;99.90
8676;DHT22;4375;52.486;13.424;2023-10-13T13:18:49;20.00;99.90
8676;DHT22;4375;52.486;13.424;2023-10-13T13:21:15;19.90;99.90
8676;DHT22;4375;52.486;13.424;2023-10-13T13:23:47;20.10;99.90
8676;DHT22;4375;52.486;13.424;2023-10-13T13:26:12;20.10;99.90
8676;DHT22;4375;52.486;13.424;2023-10-13T13:28:42;20.10;99.90
8676;DHT22;4375;52.486;13.424;2023-10-13T13:31:08;20.30;99.90
8676;DHT22;4375;52.486;13.424;2023-10-13T13:33:34;20.30;99.90
8676;DHT22;4375;52.486;13.424;2023-10-13T13:36:05;20.40;99.90
8676;DHT22;4375;52.486;13.424;2023-10-13T13:38:31;20.40;99.90
8676;DHT22;4375;52.486;13.424;2023-10-13T13:40:58;20.40;99.90
8676;DHT22;4375;52.486;13.424;2023-10-13T13:43:24;20.40;99.90
8676;DHT22;4375;52.486;13.424;2023-10-13T13:46:19;20.50;99.90
8676;DHT22;4375;52.486;13.424;2023-10-13T13:48:50;20.50;99.90
8676;DHT22;4375;52.486;13.424;2023-10-13T13:51:17;20.50;99.90
8676;DHT22;4375;52.486;13.424;2023-10-13T13:53:52;20.50;99.90
8676;DHT22;4375;52.486;13.424;2023-10-13T13:56:19;20.50;99.90
8676;DHT22;4375;52.486;13.424;2023-10-13T13:58:46;20.60;99.90
8676;DHT22;4375;52.486;13.424;2023-10-13T14:01:11;20.60;99.90
8676;DHT22;4375;52.486;13.424;2023-10-13T14:03:44;20.60;99.90
8676;DHT22;4375;52.486;13.424;2023-10-13T14:06:12;20.60;99.90
8676;DHT22;4375;52.486;13.424;2023-10-13T14:08:47;20.60;99.90
8676;DHT22;4375;52.486;13.424;2023-10-13T14:11:27;20.70;99.90
8676;DHT22;4375;52.486;13.424;2023-10-13T14:16:38;20.80;99.90
8676;DHT22;4375;52.486;13.424;2023-10-13T14:19:10;20.80;99.90
8676;DHT22;4375;52.486;13.424;2023-10-13T14:21:36;20.70;99.90
8676;DHT22;4375;52.486;13.424;2023-10-13T14:24:02;20.60;99.90
8676;DHT22;4375;52.486;13.424;2023-10-13T14:26:28;20.70;99.90
8676;DHT22;4375;52.486;13.424;2023-10-13T14:28:55;20.60;99.90
8676;DHT22;4375;52.486;13.424;2023-10-13T14:31:40;20.60;99.90
8676;DHT22;4375;52.486;13.424;2023-10-13T14:34:07;20.60;99.90
8676;DHT22;4375;52.486;13.424;2023-10-13T14:36:33;20.60;99.90
8676;DHT22;4375;52.486;13.424;2023-10-13T14:39:05;20.80;99.90
8676;DHT22;4375;52.486;13.424;2023-10-13T14:41:37;20.70;99.90
8676;DHT22;4375;52.486;13.424;2023-10-13T14:44:03;20.70;99.90
8676;DHT22;4375;52.486;13.424;2023-10-13T14:46:33;20.80;99.90
8676;DHT22;4375;52.486;13.424;2023-10-13T14:49:04;20.80;99.90
8676;DHT22;4375;52.486;13.424;2023-10-13T14:51:33;20.80;99.90
8676;DHT22;4375;52.486;13.424;2023-10-13T14:54:05;20.70;99.90
8676;DHT22;4375;52.486;13.424;2023-10-13T14:56:30;20.70;99.90
8676;DHT22;4375;52.486;13.424;2023-10-13T14:58:56;20.80;99.90
8676;DHT22;4375;52.486;13.424;2023-10-13T15:01:23;20.80;99.90
8676;DHT22;4375;52.486;13.424;2023-10-13T15:03:53;20.70;99.90
8676;DHT22;4375;52.486;13.424;2023-10-13T15:06:26;20.70;99.90
8676;DHT22;4375;52.486;13.424;2023-10-13T15:08:57;20.70;99.90
8676;DHT22;4375;52.486;13.424;2023-10-13T15:11:27;20.70;99.90
8676;DHT22;4375;52.486;13.424;2023-10-13T15:14:01;20.70;99.90
8676;DHT22;4375;52.486;13.424;2023-10-13T15:16:27;20.70;99.90
8676;DHT22;4375;52.486;13.424;2023-10-13T15:18:53;20.70;99.90
8676;DHT22;4375;52.486;13.424;2023-10-13T15:21:20;20.70;99.90
8676;DHT22;4375;52.486;13.424;2023-10-13T15:23:52;20.70;99.90
8676;DHT22;4375;52.486;13.424;2023-10-13T15:26:19;20.70;99.90
8676;DHT22;4375;52.486;13.424;2023-10-13T15:28:47;20.60;99.90
8676;DHT22;4375;52.486;13.424;2023-10-13T15:31:19;20.60;99.90
8676;DHT22;4375;52.486;13.424;2023-10-13T15:33:52;20.60;99.90
8676;DHT22;4375;52.486;13.424;2023-10-13T15:36:22;20.60;99.90
8676;DHT22;4375;52.486;13.424;2023-10-13T15:38:52;20.60;99.90
8676;DHT22;4375;52.486;13.424;2023-10-13T15:41:25;20.60;99.90
8676;DHT22;4375;52.486;13.424;2023-10-13T15:43:52;20.50;99.90
8676;DHT22;4375;52.486;13.424;2023-10-13T15:46:21;20.50;99.90
8676;DHT22;4375;52.486;13.424;2023-10-13T15:48:47;20.50;99.90
8676;DHT22;4375;52.486;13.424;2023-10-13T15:51:13;20.40;99.90
8676;DHT22;4375;52.486;13.424;2023-10-13T15:53:39;20.40;99.90
8676;DHT22;4375;52.486;13.424;2023-10-13T15:56:05;20.30;99.90
8676;DHT22;4375;52.486;13.424;2023-10-13T15:58:38;20.30;99.90
8676;DHT22;4375;52.486;13.424;2023-10-13T16:01:05;20.20;99.90
8676;DHT22;4375;52.486;13.424;2023-10-13T16:03:33;20.20;99.90
8676;DHT22;4375;52.486;13.424;2023-10-13T16:06:02;20.20;99.90
8676;DHT22;4375;52.486;13.424;2023-10-13T16:08:30;20.20;99.90
8676;DHT22;4375;52.486;13.424;2023-10-13T16:11:04;20.10;99.90
8676;DHT22;4375;52.486;13.424;2023-10-13T16:13:36;20.10;99.90
8676;DHT22;4375;52.486;13.424;2023-10-13T16:16:04;20.10;99.90
8676;DHT22;4375;52.486;13.424;2023-10-13T16:18:30;20.10;99.90
8676;DHT22;4375;52.486;13.424;2023-10-13T16:21:03;20.20;99.90
8676;DHT22;4375;52.486;13.424;2023-10-13T16:23:32;20.20;99.90
8676;DHT22;4375;52.486;13.424;2023-10-13T16:25:57;20.20;99.90
8676;DHT22;4375;52.486;13.424;2023-10-13T16:28:29;20.10;99.90
8676;DHT22;4375;52.486;13.424;2023-10-13T16:31:00;20.20;99.90
8676;DHT22;4375;52.486;13.424;2023-10-13T16:33:25;20.10;99.90
8676;DHT22;4375;52.486;13.424;2023-10-13T16:35:53;20.00;99.90
8676;DHT22;4375;52.486;13.424;2023-10-13T16:38:20;20.00;99.90
8676;DHT22;4375;52.486;13.424;2023-10-13T16:40:51;20.00;99.90